Payogasta, Argentina
Current Conditions -  °F | °C
As of 6:00 PM on Monday 20 Oct 2014 (Local Time) from SASA Reporting Station
Overcast Overcast  
Wind Chill: 64°   Ceiling: 1000
Heat Index: 64°   Visibility: 6mi
Dew Point: 57°   Wind: 8mph
Humidity: 77%   Direction: 70°ENE
Pressure: 30.18"   Gusts: NA
Location:  25.06°S, 66.03°W
Report Text: SASA 202100Z 07007KT 9999 BKN010 OVC10018/14 Q1022
Loading
Personal Weather Stations






























Interactive Weather Map
Tropical Storm Tracking
New forecast layout! Learn more

10-Day Weather Forecast

Advertisements
Track Severe Weather on mobile